Time;durP1;ratioP1;P1;durP2;ratioP2;P2;SDS_P1;SDS_P2;PMS_P1;PMS_P2;Temp;Humidity;BMP_temperature;BMP_pressure;BME280_temperature;BME280_humidity;BME280_pressure;Samples;Min_cycle;Max_cycle;Signal;HPM_P1;HPM_P2
2022/03/01 00:00:10;;;;;;;14.23;6.87;;;0.00;99.90;;;0.92;100.00;99358.66;5039884;28;20485;-76
2022/03/01 00:02:41;;;;;;;12.43;6.60;;;0.10;99.90;;;0.86;100.00;99368.50;5043749;28;20452;-76
2022/03/01 00:05:11;;;;;;;10.67;6.07;;;0.20;99.90;;;0.85;100.00;99361.69;5042267;28;20477;-76
2022/03/01 00:07:41;;;;;;;11.90;5.70;;;0.00;99.90;;;0.84;100.00;99360.88;5042893;28;20450;-76
2022/03/01 00:10:11;;;;;;;10.33;6.47;;;0.00;99.90;;;0.79;100.00;99367.22;5038303;28;20523;-76
2022/03/01 00:12:42;;;;;;;9.17;5.50;;;-0.10;99.90;;;0.81;100.00;99370.53;5040898;28;20453;-76
2022/03/01 00:15:12;;;;;;;14.27;7.00;;;-0.10;99.90;;;0.78;100.00;99365.56;5044611;28;20468;-76
2022/03/01 00:17:43;;;;;;;13.93;7.20;;;-0.10;99.90;;;0.79;100.00;99367.22;5044369;28;20442;-76
2022/03/01 00:20:13;;;;;;;11.70;5.83;;;-0.10;99.90;;;0.78;100.00;99368.13;5042089;28;20492;-76
2022/03/01 00:22:42;;;;;;;10.77;6.50;;;-0.20;99.90;;;0.70;100.00;99373.75;5045506;28;20540;-76
2022/03/01 00:25:11;;;;;;;12.53;6.70;;;-0.30;99.90;;;0.70;100.00;99378.06;5045453;28;20821;-76
2022/03/01 00:27:42;;;;;;;10.63;5.57;;;-0.30;99.90;;;0.70;100.00;99372.91;5046563;28;20468;-76
2022/03/01 00:30:14;;;;;;;12.37;7.13;;;-0.30;99.90;;;0.72;100.00;99373.66;5042727;28;20458;-76
2022/03/01 00:32:48;;;;;;;20.83;6.47;;;-0.20;99.90;;;0.66;100.00;99377.41;5039203;28;20533;-76
2022/03/01 00:35:19;;;;;;;12.30;6.43;;;-0.40;99.90;;;0.67;100.00;99373.09;5043229;28;20533;-76
2022/03/01 00:37:48;;;;;;;15.90;6.20;;;-0.30;99.90;;;0.64;100.00;99374.13;5040481;28;20453;-76
2022/03/01 00:40:18;;;;;;;13.33;6.70;;;-0.40;99.90;;;0.65;100.00;99375.78;5040289;28;20473;-76
2022/03/01 00:42:50;;;;;;;9.43;6.00;;;-0.30;99.90;;;0.62;100.00;99375.13;5041762;28;20934;-76
2022/03/01 00:45:21;;;;;;;13.30;7.07;;;-0.40;99.90;;;0.59;100.00;99378.69;5042370;28;20458;-76
2022/03/01 00:47:51;;;;;;;10.77;6.17;;;-0.40;99.90;;;0.60;100.00;99376.97;5044880;28;20453;-76
2022/03/01 00:50:20;;;;;;;9.43;6.00;;;-0.40;99.90;;;0.59;100.00;99388.19;5040954;28;20810;-76
2022/03/01 00:52:49;;;;;;;8.27;5.73;;;-0.30;99.90;;;0.56;100.00;99371.16;5040857;28;20545;-75
2022/03/01 00:55:18;;;;;;;12.20;6.90;;;-0.40;99.90;;;0.53;100.00;99376.50;5041189;28;20539;-76
2022/03/01 00:57:49;;;;;;;9.97;6.63;;;-0.30;99.90;;;0.54;100.00;99367.03;5039435;28;20827;-76
2022/03/01 01:00:21;;;;;;;11.30;6.20;;;-0.50;99.90;;;0.50;100.00;99367.22;5040936;28;20535;-76
2022/03/01 01:02:50;;;;;;;11.40;6.87;;;-0.50;99.90;;;0.47;100.00;99367.41;5040428;28;20499;-76
2022/03/01 01:05:20;;;;;;;10.83;6.40;;;-0.50;99.90;;;0.46;100.00;99370.91;5041834;28;20945;-76
2022/03/01 01:07:51;;;;;;;10.70;6.57;;;-0.40;99.90;;;0.47;100.00;99359.69;5040877;28;20456;-76
2022/03/01 01:10:21;;;;;;;11.37;5.40;;;-0.40;99.90;;;0.48;100.00;99360.53;5039783;28;20493;-76
2022/03/01 01:12:52;;;;;;;12.27;6.80;;;-0.40;99.90;;;0.44;100.00;99354.75;5038933;28;20467;-76
2022/03/01 01:15:22;;;;;;;12.40;7.00;;;-0.50;99.90;;;0.41;100.00;99362.63;5040283;28;20922;-76
2022/03/01 01:17:51;;;;;;;10.00;5.90;;;-0.50;99.90;;;0.37;100.00;99353.44;5041105;28;20493;-76
2022/03/01 01:20:21;;;;;;;8.93;5.70;;;-0.60;99.90;;;0.35;100.00;99352.69;5037783;28;20543;-76
2022/03/01 01:22:49;;;;;;;12.57;6.40;;;-0.60;99.90;;;0.36;100.00;99359.50;5039891;28;20821;-76
2022/03/01 01:25:22;;;;;;;9.13;5.80;;;-0.70;99.90;;;0.33;100.00;99358.84;5039654;28;20446;-76
2022/03/01 01:27:56;;;;;;;9.33;5.70;;;-0.70;99.90;;;0.30;100.00;99349.59;5040116;28;20465;-76
2022/03/01 01:30:29;;;;;;;8.47;5.40;;;-0.70;99.90;;;0.22;100.00;99354.34;5040327;28;20544;-76
2022/03/01 01:33:00;;;;;;;8.50;6.50;;;-0.80;99.90;;;0.22;100.00;99354.34;5037394;28;20946;-76
2022/03/01 01:35:33;;;;;;;12.07;5.80;;;-0.80;99.90;;;0.26;100.00;99348.09;5039752;28;20980;-76
2022/03/01 01:38:04;;;;;;;8.83;6.10;;;-0.70;99.90;;;0.29;100.00;99342.78;5038607;28;20454;-76
2022/03/01 01:40:36;;;;;;;9.53;5.80;;;-0.70;99.90;;;0.27;100.00;99339.47;5040400;28;20439;-75
2022/03/01 01:43:07;;;;;;;11.43;6.97;;;-0.70;99.90;;;0.26;100.00;99337.81;5038873;28;20973;-76
2022/03/01 01:45:36;;;;;;;9.53;6.57;;;-0.70;99.90;;;0.28;100.00;99330.00;5037241;28;20442;-76
2022/03/01 01:48:06;;;;;;;8.73;5.67;;;-0.70;99.90;;;0.27;100.00;99334.34;5040105;28;20449;-76
2022/03/01 01:50:36;;;;;;;9.80;5.37;;;-0.70;99.90;;;0.22;100.00;99336.34;5039117;28;20497;-76
2022/03/01 01:53:05;;;;;;;10.17;6.20;;;-0.70;99.90;;;0.17;100.00;99332.41;5042673;28;20449;-76
2022/03/01 01:55:36;;;;;;;9.00;5.50;;;-0.70;99.90;;;0.16;100.00;99331.56;5039580;28;20460;-76
2022/03/01 01:58:08;;;;;;;11.17;5.80;;;-0.80;99.90;;;0.15;100.00;99331.63;5042129;28;20471;-76
2022/03/01 02:00:39;;;;;;;9.20;6.13;;;-0.80;99.90;;;0.11;100.00;99336.13;5042135;28;20452;-76
2022/03/01 02:03:10;;;;;;;9.87;5.47;;;-0.80;99.90;;;0.06;100.00;99339.91;5039858;28;20917;-76
2022/03/01 02:05:40;;;;;;;7.80;5.20;;;-0.90;99.90;;;0.05;100.00;99344.22;5042502;28;20449;-76
2022/03/01 02:08:11;;;;;;;7.40;5.00;;;-0.90;99.90;;;0.08;100.00;99344.03;5039882;28;20450;-76
2022/03/01 02:10:41;;;;;;;10.13;5.90;;;-0.90;99.90;;;0.07;100.00;99344.13;5040817;28;20520;-76
2022/03/01 02:13:12;;;;;;;10.00;5.93;;;-0.90;99.90;;;0.00;100.00;99346.25;5039873;28;20500;-76
2022/03/01 02:15:41;;;;;;;9.70;5.50;;;-0.90;99.90;;;-0.08;100.00;99349.25;5043251;28;20960;-76
2022/03/01 02:18:11;;;;;;;8.93;6.00;;;-1.00;99.90;;;-0.01;100.00;99349.72;5036306;28;20842;-76
2022/03/01 02:20:43;;;;;;;12.90;5.63;;;-1.00;99.90;;;0.03;100.00;99351.19;5038637;28;20538;-76
2022/03/01 02:23:12;;;;;;;11.37;6.00;;;-0.90;99.90;;;-0.01;100.00;99347.16;5041813;28;20452;-76
2022/03/01 02:25:42;;;;;;;12.53;5.03;;;-0.90;99.90;;;-0.02;100.00;99353.19;5039860;28;20523;-76
2022/03/01 02:28:12;;;;;;;11.00;5.17;;;-1.00;99.90;;;-0.02;100.00;99342.91;5040521;28;20452;-75
2022/03/01 02:30:42;;;;;;;11.20;6.10;;;-1.00;99.90;;;-0.09;100.00;99342.44;5041786;28;20488;-76
2022/03/01 02:33:11;;;;;;;8.97;5.73;;;-1.10;99.90;;;-0.10;100.00;99339.94;5041402;28;21175;-76
2022/03/01 02:35:41;;;;;;;10.17;5.70;;;-1.10;99.90;;;-0.09;100.00;99342.44;5039006;28;20448;-76
2022/03/01 02:38:11;;;;;;;13.23;6.30;;;-1.10;99.90;;;-0.12;100.00;99341.78;5037492;28;20449;-76
2022/03/01 02:40:41;;;;;;;12.20;6.00;;;-1.10;99.90;;;-0.16;100.00;99348.03;5040576;28;20450;-76
2022/03/01 02:43:11;;;;;;;9.23;6.20;;;-1.20;99.90;;;-0.18;100.00;99342.16;5039596;28;20457;-76
2022/03/01 02:45:42;;;;;;;10.90;6.00;;;-1.20;99.90;;;-0.15;100.00;99332.53;5036749;28;21020;-76
2022/03/01 02:48:12;;;;;;;9.53;6.00;;;-1.10;99.90;;;-0.21;100.00;99339.75;5041717;28;20875;-76
2022/03/01 02:50:43;;;;;;;14.33;6.17;;;-1.20;99.90;;;-0.18;100.00;99334.44;5036228;28;20488;-76
2022/03/01 02:53:13;;;;;;;10.30;5.97;;;-1.20;99.90;;;-0.19;100.00;99335.34;5037217;28;20453;-76
2022/03/01 02:55:43;;;;;;;10.67;6.00;;;-1.20;99.90;;;-0.22;100.00;99338.09;5038254;28;20461;-76
2022/03/01 02:58:13;;;;;;;16.43;6.77;;;-1.20;99.90;;;-0.29;100.00;99334.22;5036551;28;20965;-76
2022/03/01 03:00:42;;;;;;;9.70;6.13;;;-1.30;99.90;;;-0.25;100.00;99343.41;5039080;28;20493;-76
2022/03/01 03:03:12;;;;;;;11.40;6.20;;;-1.20;99.90;;;-0.24;100.00;99342.47;5042248;28;20906;-76
2022/03/01 03:05:46;;;;;;;9.43;6.23;;;-1.20;99.90;;;-0.23;100.00;99331.28;5043572;28;20451;-76
2022/03/01 03:08:17;;;;;;;8.10;5.23;;;-1.10;99.90;;;-0.31;100.00;99333.50;5040879;28;20461;-76
2022/03/01 03:10:47;;;;;;;11.83;5.73;;;-1.30;99.90;;;-0.28;100.00;99331.56;5041614;28;20556;-76
2022/03/01 03:13:17;;;;;;;13.73;5.97;;;-1.20;99.90;;;-0.36;100.00;99332.91;5041191;28;20456;-77
2022/03/01 03:15:47;;;;;;;9.17;5.70;;;-1.40;99.90;;;-0.45;100.00;99336.00;5042086;28;20472;-76
2022/03/01 03:18:16;;;;;;;19.17;6.30;;;-1.50;99.90;;;-0.42;100.00;99339.25;5039281;28;20444;-76
2022/03/01 03:20:48;;;;;;;8.43;5.37;;;-1.40;99.90;;;-0.38;100.00;99339.91;5041614;28;20949;-76
2022/03/01 03:23:18;;;;;;;9.40;5.53;;;-1.40;99.90;;;-0.38;100.00;99345.84;5040735;28;20449;-76
2022/03/01 03:25:48;;;;;;;13.27;6.20;;;-1.40;99.90;;;-0.39;100.00;99353.66;5041450;28;20487;-76
2022/03/01 03:28:17;;;;;;;8.83;5.33;;;-1.40;99.90;;;-0.46;100.00;99339.50;5040054;28;20523;-76
2022/03/01 03:30:46;;;;;;;9.53;5.37;;;-1.50;99.90;;;-0.45;100.00;99341.16;5040559;28;20497;-76
2022/03/01 03:33:16;;;;;;;6.97;5.20;;;-1.40;99.90;;;-0.43;100.00;99342.72;5041544;28;20526;-76
2022/03/01 03:35:48;;;;;;;8.63;5.30;;;-1.40;99.90;;;-0.43;100.00;99344.44;5041543;28;20457;-76
2022/03/01 03:38:19;;;;;;;9.93;6.03;;;-1.30;99.90;;;-0.47;100.00;99340.38;5047918;28;20953;-76
2022/03/01 03:40:48;;;;;;;7.93;4.80;;;-1.40;99.90;;;-0.46;100.00;99336.91;5040954;28;20492;-76
2022/03/01 03:43:17;;;;;;;11.53;5.43;;;-1.40;99.90;;;-0.43;100.00;99336.75;5049249;28;20473;-76
2022/03/01 03:45:47;;;;;;;7.50;4.90;;;-1.30;99.90;;;-0.42;100.00;99338.41;5042980;28;20448;-76
2022/03/01 03:48:18;;;;;;;13.13;5.70;;;-1.40;99.90;;;-0.41;100.00;99345.19;5044346;28;20457;-76
2022/03/01 03:50:50;;;;;;;11.30;5.67;;;-1.20;99.90;;;-0.47;100.00;99348.09;5042700;28;20503;-76
2022/03/01 03:53:20;;;;;;;10.43;6.00;;;-1.30;99.90;;;-0.52;100.00;99340.63;5042513;28;20507;-76
2022/03/01 03:55:50;;;;;;;8.30;5.40;;;-1.40;99.90;;;-0.47;100.00;99343.78;5043627;28;20506;-76
2022/03/01 03:58:19;;;;;;;9.93;6.13;;;-1.40;99.90;;;-0.47;100.00;99345.53;5040996;28;20487;-76
2022/03/01 04:00:50;;;;;;;11.40;5.77;;;-1.20;99.90;;;-0.44;100.00;99350.50;5046738;28;20452;-76
2022/03/01 04:03:21;;;;;;;10.60;6.00;;;-1.30;99.90;;;-0.46;100.00;99352.31;5042375;28;20453;-76
2022/03/01 04:05:52;;;;;;;10.40;5.00;;;-1.20;99.90;;;-0.45;100.00;99354.00;5038264;28;20478;-76
2022/03/01 04:08:21;;;;;;;8.20;5.40;;;-1.30;99.90;;;-0.43;100.00;99345.28;5043621;28;20943;-76
2022/03/01 04:10:51;;;;;;;13.57;6.37;;;-1.30;99.90;;;-0.43;100.00;99347.00;5044034;28;20574;-76
2022/03/01 04:13:21;;;;;;;9.80;5.60;;;-1.30;99.90;;;-0.41;100.00;99350.31;5039617;28;20945;-77
2022/03/01 04:15:50;;;;;;;10.80;6.13;;;-1.30;99.90;;;-0.43;100.00;99352.16;5046800;28;20460;-76
2022/03/01 04:18:21;;;;;;;7.33;5.47;;;-1.20;99.90;;;-0.45;100.00;99354.78;5044143;28;20503;-76
2022/03/01 04:20:51;;;;;;;9.00;5.90;;;-1.30;99.90;;;-0.45;100.00;99348.84;5041358;28;20450;-76
2022/03/01 04:23:21;;;;;;;10.43;5.80;;;-1.30;99.90;;;-0.43;100.00;99352.16;5040942;28;20960;-76
2022/03/01 04:25:50;;;;;;;10.40;5.47;;;-1.30;99.90;;;-0.43;100.00;99352.16;5042588;28;20510;-82
2022/03/01 04:28:21;;;;;;;10.60;6.20;;;-1.40;99.90;;;-0.45;100.00;99343.72;5040501;28;20736;-78
2022/03/01 04:30:50;;;;;;;9.87;5.57;;;-1.40;99.90;;;-0.48;100.00;99343.88;5041185;28;20491;-76
2022/03/01 04:33:20;;;;;;;8.57;5.50;;;-1.40;99.90;;;-0.48;100.00;99339.56;5043597;28;20551;-76
2022/03/01 04:35:51;;;;;;;10.63;6.40;;;-1.40;99.90;;;-0.51;100.00;99338.00;5040819;28;20457;-76
2022/03/01 04:38:21;;;;;;;11.20;6.00;;;-1.50;99.90;;;-0.51;100.00;99345.69;5043907;28;20442;-76
2022/03/01 04:40:50;;;;;;;10.77;5.93;;;-1.50;99.90;;;-0.51;100.00;99343.13;5041008;28;20506;-76
2022/03/01 04:43:21;;;;;;;10.90;5.60;;;-1.40;99.90;;;-0.52;100.00;99341.47;5041964;28;20536;-77
2022/03/01 04:45:50;;;;;;;8.40;5.10;;;-1.40;99.90;;;-0.53;100.00;99336.44;5040724;28;20460;-76
2022/03/01 04:48:20;;;;;;;9.27;5.20;;;-1.40;99.90;;;-0.54;100.00;99339.91;5040928;28;20928;-76
2022/03/01 04:50:51;;;;;;;8.50;5.63;;;-1.40;99.90;;;-0.53;100.00;99337.28;5039611;28;20494;-77
2022/03/01 04:53:22;;;;;;;9.13;5.50;;;-1.40;99.90;;;-0.54;100.00;99332.19;5034701;28;20445;-77
2022/03/01 04:55:51;;;;;;;10.57;6.23;;;-1.50;99.90;;;-0.57;100.00;99340.91;5038154;28;20448;-77
2022/03/01 04:58:21;;;;;;;10.03;5.80;;;-1.50;99.90;;;-0.57;100.00;99334.94;5041452;28;20455;-76
2022/03/01 05:00:54;;;;;;;9.93;5.40;;;-1.50;99.90;;;-0.63;100.00;99338.69;5039336;28;20446;-77
2022/03/01 05:03:25;;;;;;;8.87;5.20;;;-1.40;99.90;;;-0.65;100.00;99340.50;5042506;28;20460;-77
2022/03/01 05:05:56;;;;;;;7.13;5.67;;;-1.40;99.90;;;-0.64;100.00;99338.78;5043765;28;20538;-77
2022/03/01 05:08:30;;;;;;;9.73;6.20;;;-1.50;99.90;;;-0.68;100.00;99338.09;5042671;28;20479;-77
2022/03/01 05:10:59;;;;;;;9.30;6.10;;;-1.50;99.90;;;-0.68;100.00;99334.72;5038280;28;20859;-77
2022/03/01 05:13:30;;;;;;;10.00;5.77;;;-1.50;99.90;;;-0.71;100.00;99343.41;5038615;28;20460;-77
2022/03/01 05:16:17;;;;;;;8.93;5.73;;;-1.50;99.90;;;-0.70;100.00;99342.50;5038862;28;20886;-77
2022/03/01 05:18:46;;;;;;;8.07;5.07;;;-1.50;99.90;;;-0.74;100.00;99341.03;5037365;28;20476;-77
2022/03/01 05:21:16;;;;;;;6.17;4.80;;;-1.50;99.90;;;-0.74;100.00;99342.75;5044928;28;20462;-77
2022/03/01 05:23:46;;;;;;;9.93;4.47;;;-1.50;99.90;;;-0.74;100.00;99351.28;5040438;28;20455;-77
2022/03/01 05:26:15;;;;;;;7.23;5.10;;;-1.50;99.90;;;-0.72;100.00;99353.75;5039807;28;20491;-77
2022/03/01 05:28:44;;;;;;;7.33;5.53;;;-1.50;99.90;;;-0.73;100.00;99358.06;5037323;28;20506;-77
2022/03/01 05:31:14;;;;;;;6.97;5.27;;;-1.60;99.90;;;-0.73;100.00;99360.63;5036477;28;20531;-76
2022/03/01 05:33:44;;;;;;;10.90;6.03;;;-1.60;99.90;;;-0.71;100.00;99363.13;5036385;28;20456;-77
2022/03/01 05:36:16;;;;;;;8.57;5.87;;;-1.60;99.90;;;-0.76;100.00;99358.22;5039724;28;20457;-76
2022/03/01 05:38:45;;;;;;;9.30;5.77;;;-1.70;99.90;;;-0.76;100.00;99355.66;5043593;28;20459;-77
2022/03/01 05:41:15;;;;;;;8.20;5.67;;;-1.70;99.90;;;-0.76;100.00;99339.44;5040597;28;20469;-76
2022/03/01 05:43:45;;;;;;;11.07;5.33;;;-1.70;99.90;;;-0.76;100.00;99342.84;5038158;28;21129;-76
2022/03/01 05:46:15;;;;;;;6.80;5.10;;;-1.70;99.90;;;-0.76;100.00;99340.25;5036916;28;20551;-77
2022/03/01 05:48:46;;;;;;;11.40;5.63;;;-1.60;99.90;;;-0.82;100.00;99339.78;5039128;28;20532;-76
2022/03/01 05:51:18;;;;;;;9.80;5.20;;;-1.70;99.90;;;-0.82;100.00;99345.75;5037805;28;20535;-76
2022/03/01 05:53:53;;;;;;;6.73;5.00;;;-1.70;99.90;;;-0.88;100.00;99343.50;5037689;28;20868;-77
2022/03/01 05:56:23;;;;;;;7.37;5.23;;;-1.80;99.90;;;-0.86;100.00;99343.41;5035986;28;20483;-76
2022/03/01 05:58:52;;;;;;;8.63;5.00;;;-1.80;99.90;;;-0.84;100.00;99345.00;5039223;28;21044;-76
2022/03/01 06:01:22;;;;;;;8.33;5.37;;;-1.80;99.90;;;-0.84;100.00;99337.31;5035431;28;20453;-77
2022/03/01 06:03:51;;;;;;;8.33;5.30;;;-1.70;99.90;;;-0.82;100.00;99350.88;5036040;28;20551;-76
2022/03/01 06:06:22;;;;;;;9.83;6.00;;;-1.70;99.90;;;-0.84;100.00;99344.19;5041070;28;20473;-76
2022/03/01 06:08:51;;;;;;;10.70;5.50;;;-1.70;99.90;;;-0.89;100.00;99348.72;5035090;28;20472;-76
2022/03/01 06:11:21;;;;;;;13.03;6.37;;;-1.60;99.90;;;-0.89;100.00;99349.56;5036700;28;20578;-76
2022/03/01 06:13:51;;;;;;;9.40;5.73;;;-1.70;99.90;;;-0.89;100.00;99349.56;5036199;28;20497;-76
2022/03/01 06:16:21;;;;;;;16.27;5.37;;;-1.60;99.90;;;-0.90;100.00;99345.31;5038005;28;20465;-81
2022/03/01 06:18:52;;;;;;;11.47;6.10;;;-1.70;99.90;;;-0.91;100.00;99345.41;5035368;28;20484;-76
2022/03/01 06:21:22;;;;;;;10.30;5.97;;;-1.80;99.90;;;-0.91;100.00;99348.81;5039559;28;20950;-77
2022/03/01 06:23:51;;;;;;;9.00;5.87;;;-1.80;99.90;;;-0.90;100.00;99358.16;5036499;28;20468;-77
2022/03/01 06:26:21;;;;;;;12.27;5.53;;;-1.80;99.90;;;-0.92;100.00;99360.00;5038359;28;20973;-77
2022/03/01 06:28:52;;;;;;;8.73;5.70;;;-1.80;99.90;;;-0.91;100.00;99371.91;5042744;28;20937;-76
2022/03/01 06:31:22;;;;;;;11.07;5.90;;;-1.80;99.90;;;-0.91;100.00;99371.91;5041251;28;20491;-77
2022/03/01 06:33:51;;;;;;;8.27;4.97;;;-1.80;99.90;;;-0.91;100.00;99368.53;5038886;28;20464;-76
2022/03/01 06:36:22;;;;;;;8.97;5.20;;;-1.80;99.90;;;-0.96;100.00;99379.03;5032934;28;20568;-76
2022/03/01 06:38:52;;;;;;;10.50;5.50;;;-1.70;99.90;;;-0.96;100.00;99376.47;5037028;28;20470;-76
2022/03/01 06:41:22;;;;;;;9.17;5.63;;;-1.70;99.90;;;-0.94;100.00;99372.09;5039290;28;20475;-76
2022/03/01 06:43:51;;;;;;;12.80;6.70;;;-1.80;99.90;;;-0.93;100.00;99390.84;5034531;28;20467;-76
2022/03/01 06:46:21;;;;;;;9.63;5.80;;;-1.80;99.90;;;-0.94;100.00;99384.94;5039341;28;20835;-77
2022/03/01 06:48:51;;;;;;;11.80;5.70;;;-1.70;99.90;;;-0.95;100.00;99385.00;5035088;28;20475;-77
2022/03/01 06:51:24;;;;;;;7.63;5.00;;;-1.70;99.90;;;-0.94;100.00;99386.66;5036512;28;20454;-76
2022/03/01 06:53:53;;;;;;;11.53;6.00;;;-1.70;99.90;;;-0.93;100.00;99384.00;5038505;28;20466;-77
2022/03/01 06:56:22;;;;;;;14.00;6.20;;;-1.80;99.90;;;-0.94;100.00;99378.97;5033881;28;20524;-76
2022/03/01 06:58:53;;;;;;;7.97;5.20;;;-1.80;99.90;;;-0.93;100.00;99384.00;5037585;28;20541;-76
2022/03/01 07:01:22;;;;;;;9.67;5.70;;;-1.80;99.90;;;-0.94;100.00;99395.19;5034005;28;20461;-76
2022/03/01 07:03:53;;;;;;;9.17;5.43;;;-1.70;99.90;;;-0.97;100.00;99403.03;5038044;28;20494;-76
2022/03/01 07:06:24;;;;;;;10.37;5.33;;;-1.60;99.90;;;-0.98;100.00;99403.97;5036289;28;20492;-76
2022/03/01 07:08:54;;;;;;;9.13;5.73;;;-1.60;99.90;;;-0.97;100.00;99405.59;5040389;28;20540;-76
2022/03/01 07:11:24;;;;;;;9.27;4.53;;;-1.60;99.90;;;-0.93;100.00;99404.53;5036344;28;20461;-76
2022/03/01 07:13:54;;;;;;;8.30;5.37;;;-1.70;99.90;;;-0.89;100.00;99400.91;5038329;28;20961;-76
2022/03/01 07:16:26;;;;;;;9.20;5.83;;;-1.70;99.90;;;-0.83;100.00;99392.84;5034490;28;20457;-76
2022/03/01 07:18:55;;;;;;;9.57;5.83;;;-1.70;99.90;;;-0.86;100.00;99398.16;5037510;28;21014;-76
2022/03/01 07:21:28;;;;;;;9.00;5.90;;;-1.60;99.90;;;-0.80;100.00;99391.88;5035058;28;20463;-77
2022/03/01 07:23:57;;;;;;;9.67;6.30;;;-1.60;99.90;;;-0.82;100.00;99397.09;5036015;28;20521;-77
2022/03/01 07:26:28;;;;;;;8.40;6.00;;;-1.50;99.90;;;-0.76;100.00;99391.63;5033996;28;21008;-77
2022/03/01 07:28:57;;;;;;;11.53;6.53;;;-1.50;99.90;;;-0.76;100.00;99386.47;5033741;28;20475;-77
2022/03/01 07:31:29;;;;;;;10.10;5.47;;;-1.50;99.90;;;-0.70;100.00;99380.19;5035801;28;20538;-77
2022/03/01 07:33:58;;;;;;;8.80;6.07;;;-1.50;99.90;;;-0.67;100.00;99387.72;5040389;28;20521;-77
2022/03/01 07:36:29;;;;;;;11.10;6.27;;;-1.40;99.90;;;-0.67;100.00;99388.56;5038294;28;20550;-77
2022/03/01 07:39:00;;;;;;;11.33;6.00;;;-1.40;99.90;;;-0.65;100.00;99384.16;5037720;28;20459;-77
2022/03/01 07:41:30;;;;;;;26.90;6.50;;;-1.40;99.90;;;-0.62;100.00;99386.56;5036468;28;21172;-77
2022/03/01 07:44:00;;;;;;;17.37;7.77;;;-1.30;99.90;;;-0.59;100.00;99383.81;5036865;28;20476;-77
2022/03/01 07:46:30;;;;;;;12.10;6.80;;;-1.20;99.90;;;-0.53;100.00;99380.09;5032801;28;20816;-76
2022/03/01 07:49:00;;;;;;;13.40;6.00;;;-1.20;99.90;;;-0.45;100.00;99375.34;5035675;28;20471;-76
2022/03/01 07:51:31;;;;;;;10.00;5.67;;;-1.20;99.90;;;-0.39;100.00;99379.34;5038626;28;21306;-77
2022/03/01 07:54:02;;;;;;;10.43;6.30;;;-1.10;99.90;;;-0.32;100.00;99380.66;5036788;28;20496;-77
2022/03/01 07:56:33;;;;;;;10.93;5.63;;;-1.10;99.90;;;-0.23;100.00;99383.53;5037819;28;20553;-77
2022/03/01 07:59:03;;;;;;;10.40;6.50;;;-1.00;99.90;;;-0.13;100.00;99381.25;5036996;28;20461;-77
2022/03/01 08:01:33;;;;;;;11.83;7.07;;;-0.90;99.90;;;-0.07;100.00;99381.72;5036059;28;20499;-76
2022/03/01 08:04:02;;;;;;;15.10;7.73;;;-0.80;99.90;;;0.02;100.00;99375.25;5037388;28;20476;-77
2022/03/01 08:06:33;;;;;;;17.40;7.80;;;-0.70;99.90;;;0.11;100.00;99376.44;5034831;28;20930;-77
2022/03/01 08:09:07;;;;;;;14.80;7.23;;;-0.60;99.90;;;0.19;100.00;99380.25;5040787;28;21091;-77
2022/03/01 08:11:36;;;;;;;12.50;7.70;;;-0.50;99.90;;;0.28;100.00;99377.13;5036169;28;20954;-77
2022/03/01 08:14:06;;;;;;;13.40;7.13;;;-0.40;99.90;;;0.36;100.00;99372.38;5038190;28;20979;-77
2022/03/01 08:16:36;;;;;;;13.77;7.70;;;-0.30;99.90;;;0.47;100.00;99370.00;5039689;28;20468;-77
2022/03/01 08:19:06;;;;;;;15.20;8.87;;;-0.20;99.90;;;0.59;100.00;99375.31;5030231;28;21018;-77
2022/03/01 08:21:37;;;;;;;9.80;6.90;;;-0.10;99.90;;;0.69;100.00;99372.13;5019404;28;21431;-77
2022/03/01 08:24:08;;;;;;;18.83;7.53;;;0.00;99.90;;;0.78;100.00;99363.00;5021857;28;20881;-77
2022/03/01 08:26:39;;;;;;;12.20;7.57;;;0.20;99.90;;;0.88;100.00;99364.91;5022350;28;20807;-77
2022/03/01 08:29:09;;;;;;;13.80;7.27;;;0.30;99.90;;;0.97;100.00;99364.34;5015862;28;20470;-77
2022/03/01 08:31:41;;;;;;;13.97;7.40;;;0.30;99.90;;;1.06;100.00;99359.56;5014905;28;20971;-77
2022/03/01 08:34:10;;;;;;;14.33;8.10;;;0.40;99.90;;;1.15;100.00;99364.94;5015297;28;20498;-77
2022/03/01 08:36:42;;;;;;;11.57;7.20;;;0.50;99.90;;;1.22;100.00;99361.06;5019505;28;20813;-77
2022/03/01 08:39:12;;;;;;;12.10;7.10;;;0.60;99.90;;;1.31;100.00;99370.81;5024284;28;20513;-77
2022/03/01 08:41:42;;;;;;;14.23;7.37;;;0.70;99.90;;;1.38;100.00;99377.25;5019116;28;20486;-77
2022/03/01 08:44:12;;;;;;;15.63;7.47;;;0.80;99.90;;;1.45;100.00;99363.03;5018875;28;20457;-77
2022/03/01 08:46:44;;;;;;;9.97;6.07;;;0.80;99.90;;;1.53;100.00;99365.13;5019324;28;20836;-78
2022/03/01 08:49:13;;;;;;;13.27;8.00;;;0.90;99.90;;;1.58;100.00;99363.09;5016413;28;20849;-77
2022/03/01 08:51:44;;;;;;;19.63;9.70;;;1.00;99.90;;;1.65;100.00;99360.94;5021394;28;20467;-81
2022/03/01 08:54:14;;;;;;;14.37;6.90;;;1.20;99.90;;;1.70;100.00;99353.75;5020823;28;20483;-78
2022/03/01 08:56:44;;;;;;;12.53;7.13;;;1.20;99.90;;;1.74;100.00;99350.03;5023951;28;20561;-77
2022/03/01 08:59:13;;;;;;;16.13;7.83;;;1.20;99.90;;;1.80;100.00;99350.47;5021452;28;20469;-78
2022/03/01 09:01:42;;;;;;;12.47;7.17;;;1.30;99.90;;;1.85;100.00;99352.72;5017723;28;20531;-78
2022/03/01 09:04:12;;;;;;;16.13;7.10;;;1.30;99.90;;;1.90;100.00;99350.69;5022417;28;20462;-77
2022/03/01 09:06:43;;;;;;;14.40;7.77;;;1.30;99.90;;;1.96;100.00;99353.69;5016249;28;20970;-78
2022/03/01 09:09:13;;;;;;;16.17;7.33;;;1.30;99.90;;;2.01;100.00;99355.97;5017201;28;20460;-78
2022/03/01 09:11:42;;;;;;;12.90;7.80;;;1.30;99.90;;;2.03;99.14;99354.94;5017299;28;20529;-77
2022/03/01 09:14:12;;;;;;;12.57;6.63;;;1.40;99.90;;;2.08;99.23;99346.91;5016526;28;20507;-77
2022/03/01 09:16:42;;;;;;;15.53;7.20;;;1.40;99.90;;;2.12;98.60;99353.50;5014492;28;20460;-77
2022/03/01 09:19:11;;;;;;;12.60;6.53;;;1.50;99.90;;;2.11;96.84;99357.03;5024037;28;20545;-77
2022/03/01 09:21:41;;;;;;;14.97;7.37;;;1.40;99.90;;;2.14;96.26;99355.97;5036613;28;20542;-77
2022/03/01 09:24:11;;;;;;;11.17;6.80;;;1.50;99.90;;;2.13;95.03;99357.72;5033154;28;20508;-78
2022/03/01 09:26:40;;;;;;;15.30;8.20;;;1.60;99.90;;;2.16;95.66;99359.28;5035550;28;20797;-77
2022/03/01 09:29:16;;;;;;;15.73;8.27;;;1.50;99.90;;;2.20;95.57;99366.72;5038674;28;20474;-77
2022/03/01 09:31:45;;;;;;;11.57;6.53;;;1.60;99.90;;;2.24;95.88;99363.00;5035494;28;20500;-78
2022/03/01 09:34:15;;;;;;;26.13;7.77;;;1.60;99.90;;;2.29;95.56;99353.19;5034982;28;20850;-77
2022/03/01 09:36:45;;;;;;;15.13;8.00;;;1.60;99.90;;;2.33;95.34;99361.56;5035850;28;20498;-77
2022/03/01 09:39:22;;;;;;;13.27;7.50;;;1.70;99.90;;;2.38;94.81;99364.66;5035949;28;20469;-77
2022/03/01 09:41:55;;;;;;;15.83;8.03;;;1.70;99.90;;;2.44;94.86;99364.25;5037556;28;20468;-78
2022/03/01 09:44:25;;;;;;;16.07;7.33;;;1.70;99.90;;;2.48;95.00;99363.94;5036235;28;20469;-77
2022/03/01 09:46:55;;;;;;;14.30;7.40;;;1.80;99.90;;;2.52;94.76;99362.81;5034284;28;20477;-77
2022/03/01 09:49:25;;;;;;;18.13;7.50;;;1.90;99.90;;;2.56;94.16;99358.28;5033345;28;20645;-77
2022/03/01 09:51:54;;;;;;;15.90;7.60;;;1.90;99.90;;;2.60;93.15;99364.06;5035167;28;20462;-77
2022/03/01 09:54:26;;;;;;;12.13;7.30;;;1.90;99.90;;;2.65;92.95;99361.97;5036946;28;20500;-76
2022/03/01 09:56:57;;;;;;;11.90;7.50;;;2.00;99.90;;;2.69;92.79;99350.50;5036130;28;20495;-77
2022/03/01 09:59:27;;;;;;;14.17;8.07;;;2.10;99.90;;;2.75;91.84;99352.66;5036409;28;20574;-77
2022/03/01 10:01:57;;;;;;;12.83;7.47;;;2.20;99.90;;;2.79;91.24;99354.09;5034934;28;20465;-77
2022/03/01 10:04:27;;;;;;;10.57;6.43;;;2.20;99.90;;;2.81;91.22;99355.63;5038067;28;20494;-77
2022/03/01 10:06:57;;;;;;;17.83;7.30;;;2.20;99.90;;;2.88;91.77;99353.47;5033285;28;20505;-77
2022/03/01 10:09:28;;;;;;;32.10;13.87;;;2.20;99.90;;;2.94;91.27;99343.53;5038926;28;20472;-77
2022/03/01 10:12:06;;;;;;;20.43;10.40;;;2.30;99.90;;;3.01;91.37;99343.94;5033787;28;20497;-77
2022/03/01 10:14:38;;;;;;;17.60;8.17;;;2.40;99.90;;;3.09;91.47;99340.81;5037270;28;20491;-78
2022/03/01 10:17:16;;;;;;;11.90;7.43;;;2.50;99.90;;;3.13;92.10;99332.72;5033512;28;20982;-77
2022/03/01 10:19:46;;;;;;;14.53;8.17;;;2.50;99.90;;;3.19;89.99;99340.06;5037925;28;20488;-78
2022/03/01 10:22:15;;;;;;;13.00;7.13;;;2.60;99.90;;;3.23;86.75;99335.50;5036007;28;20491;-77
2022/03/01 10:24:50;;;;;;;13.37;7.07;;;2.70;98.70;;;3.30;84.48;99340.09;5035571;28;20556;-78